createdAt,value
2022-08-02T00:00:35.067Z,6.30
2022-08-02T00:03:01.960Z,5.45
2022-08-02T00:05:29.004Z,4.88
2022-08-02T00:07:55.892Z,5.47
2022-08-02T00:10:22.837Z,3.50
2022-08-02T00:12:49.732Z,4.57
2022-08-02T00:15:16.682Z,6.18
2022-08-02T00:17:45.551Z,7.63
2022-08-02T00:20:14.459Z,5.03
2022-08-02T00:22:41.407Z,4.05
2022-08-02T00:25:08.640Z,3.67
2022-08-02T00:27:35.802Z,5.35
2022-08-02T00:30:02.742Z,3.67
2022-08-02T00:32:29.704Z,5.13
2022-08-02T00:34:56.573Z,3.03
2022-08-02T00:37:23.402Z,4.28
2022-08-02T00:39:50.292Z,4.60
2022-08-02T00:42:17.166Z,5.85
2022-08-02T00:44:44.084Z,3.80
2022-08-02T00:47:11.056Z,4.03
2022-08-02T00:49:41.887Z,3.58
2022-08-02T00:52:09.185Z,6.35
2022-08-02T00:54:36.334Z,5.38
2022-08-02T00:57:03.290Z,3.05
2022-08-02T00:59:30.140Z,3.88
2022-08-02T01:01:58.439Z,3.40
2022-08-02T01:04:30.107Z,4.43
2022-08-02T01:06:58.079Z,8.18
2022-08-02T01:09:25.257Z,4.35
2022-08-02T01:11:52.071Z,5.47
2022-08-02T01:14:19.841Z,3.05
2022-08-02T01:16:56.677Z,4.80
2022-08-02T01:19:56.553Z,4.60
2022-08-02T01:23:06.112Z,4.13
2022-08-02T01:26:18.233Z,4.28
2022-08-02T01:29:06.854Z,3.50
2022-08-02T01:31:55.659Z,3.05
2022-08-02T01:34:52.731Z,3.53
2022-08-02T01:37:32.196Z,4.03
2022-08-02T01:40:08.365Z,3.00
2022-08-02T01:42:38.489Z,4.10
2022-08-02T01:45:09.200Z,2.95
2022-08-02T01:47:40.277Z,4.38
2022-08-02T01:50:14.191Z,10.80
2022-08-02T01:52:53.536Z,4.38
2022-08-02T01:55:33.639Z,4.70
2022-08-02T01:58:06.003Z,5.28
2022-08-02T02:00:39.685Z,2.67
2022-08-02T02:03:13.720Z,3.28
2022-08-02T02:05:43.842Z,3.85
2022-08-02T02:08:12.211Z,3.78
2022-08-02T02:10:40.834Z,3.90
2022-08-02T02:13:17.039Z,2.90
2022-08-02T02:15:50.807Z,4.95
2022-08-02T02:18:25.989Z,4.03
2022-08-02T02:20:54.482Z,3.43
2022-08-02T02:23:25.075Z,3.40
2022-08-02T02:25:55.860Z,2.75
2022-08-02T02:28:30.216Z,4.68
2022-08-02T02:31:29.691Z,8.48
2022-08-02T02:34:17.829Z,6.63
2022-08-02T02:36:51.864Z,4.55
2022-08-02T02:39:23.655Z,5.60
2022-08-02T02:41:54.739Z,5.18
2022-08-02T02:44:23.458Z,3.40
2022-08-02T02:46:54.236Z,4.03
2022-08-02T02:49:23.802Z,6.03
2022-08-02T02:51:53.054Z,4.60
2022-08-02T02:54:32.210Z,3.05
2022-08-02T02:57:04.914Z,3.15
2022-08-02T02:59:34.488Z,3.42
2022-08-02T03:02:08.270Z,4.63
2022-08-02T03:04:57.042Z,4.25
2022-08-02T03:07:26.110Z,3.33
2022-08-02T03:09:54.520Z,3.35
2022-08-02T03:12:28.759Z,4.28
2022-08-02T03:15:05.718Z,6.95
2022-08-02T03:17:58.750Z,2.50
2022-08-02T03:20:25.685Z,3.05
2022-08-02T03:22:52.624Z,2.60
2022-08-02T03:25:19.683Z,4.00
2022-08-02T03:27:47.482Z,7.15
2022-08-02T03:30:15.345Z,4.65
2022-08-02T03:32:47.762Z,4.38
2022-08-02T03:35:23.409Z,3.47
2022-08-02T03:37:54.028Z,4.85
2022-08-02T03:40:22.120Z,2.70
2022-08-02T03:42:50.303Z,6.30
2022-08-02T03:45:18.322Z,4.78
2022-08-02T03:47:46.188Z,3.53
2022-08-02T03:50:14.274Z,5.22
2022-08-02T03:52:43.035Z,5.57
2022-08-02T03:55:12.584Z,5.07
2022-08-02T03:57:42.004Z,4.40
2022-08-02T04:00:12.925Z,2.97
2022-08-02T04:02:39.944Z,7.45
2022-08-02T04:05:07.185Z,5.18
2022-08-02T04:08:33.893Z,4.03
2022-08-02T04:10:20.965Z,3.40
2022-08-02T04:12:48.162Z,3.35
2022-08-02T04:15:15.813Z,4.18
2022-08-02T04:17:51.099Z,3.40
2022-08-02T04:20:31.380Z,5.88
2022-08-02T04:23:09.855Z,3.78
2022-08-02T04:25:40.136Z,4.85
2022-08-02T04:28:16.658Z,6.43
2022-08-02T04:30:47.720Z,7.15
2022-08-02T04:33:15.371Z,6.57
2022-08-02T04:35:42.550Z,3.70
2022-08-02T04:38:28.649Z,6.47
2022-08-02T04:40:57.081Z,5.82
2022-08-02T04:43:24.100Z,8.20
2022-08-02T04:45:54.835Z,6.95
2022-08-02T04:48:22.702Z,6.45
2022-08-02T04:50:50.741Z,5.10
2022-08-02T04:53:17.994Z,8.57
2022-08-02T04:55:45.078Z,4.47
2022-08-02T04:58:38.394Z,7.68
2022-08-02T05:00:59.451Z,4.70
2022-08-02T05:03:26.459Z,5.05
2022-08-02T05:05:53.399Z,6.30
2022-08-02T05:08:20.268Z,6.53
2022-08-02T05:10:47.729Z,6.43
2022-08-02T05:13:14.796Z,5.72
2022-08-02T05:15:41.672Z,6.22
2022-08-02T05:18:08.695Z,6.13
2022-08-02T05:20:35.572Z,6.05
2022-08-02T05:23:03.519Z,9.60
2022-08-02T05:25:30.479Z,9.02
2022-08-02T05:27:57.459Z,10.13
2022-08-02T05:30:24.563Z,8.63
2022-08-02T05:32:54.272Z,7.18
2022-08-02T05:35:23.557Z,13.15
2022-08-02T05:37:51.765Z,13.40
2022-08-02T05:40:25.454Z,10.52
2022-08-02T05:42:54.201Z,9.43
2022-08-02T05:45:21.810Z,11.88
2022-08-02T05:47:48.831Z,9.52
2022-08-02T05:50:15.861Z,16.80
2022-08-02T05:52:48.377Z,10.45
2022-08-02T05:55:28.777Z,10.52
2022-08-02T05:58:07.875Z,9.93
2022-08-02T06:00:37.657Z,17.50
2022-08-02T06:03:31.176Z,16.23
2022-08-02T06:06:12.448Z,12.13
2022-08-02T06:08:48.124Z,12.18
2022-08-02T06:11:22.847Z,16.10
2022-08-02T06:13:51.724Z,8.88
2022-08-02T06:16:32.202Z,15.63
2022-08-02T06:19:01.591Z,11.98
2022-08-02T06:22:35.577Z,15.90
2022-08-02T06:24:19.933Z,15.60
2022-08-02T06:26:52.418Z,17.30
2022-08-02T06:29:21.412Z,11.45
2022-08-02T06:31:53.276Z,14.60
2022-08-02T06:34:20.156Z,17.50
2022-08-02T06:37:02.359Z,14.73
2022-08-02T06:39:48.101Z,11.02
2022-08-02T06:42:26.916Z,10.68
2022-08-02T06:44:57.919Z,15.68
2022-08-02T06:47:26.530Z,11.48
2022-08-02T06:49:55.220Z,10.35
2022-08-02T06:52:29.417Z,14.98
2022-08-02T06:57:26.086Z,9.52
2022-08-02T06:59:53.253Z,12.32
2022-08-02T07:02:20.634Z,15.52
2022-08-02T07:04:47.640Z,10.27
2022-08-02T07:07:14.719Z,16.10
2022-08-02T07:09:56.984Z,11.23
2022-08-02T07:12:31.462Z,11.23
2022-08-02T07:15:06.654Z,11.50
2022-08-02T07:17:34.548Z,7.97
2022-08-02T07:20:01.651Z,12.02
2022-08-02T07:22:29.111Z,11.00
2022-08-02T07:24:59.145Z,14.20
2022-08-02T07:27:27.772Z,11.30
2022-08-02T07:29:57.830Z,10.27
2022-08-02T07:32:28.346Z,11.40
2022-08-02T07:34:56.360Z,14.38
2022-08-02T07:37:52.686Z,11.77
2022-08-02T07:40:20.543Z,11.25
2022-08-02T07:42:57.764Z,8.75
2022-08-02T07:45:27.572Z,15.30
2022-08-02T07:47:56.726Z,11.98
2022-08-02T07:50:24.154Z,12.80
2022-08-02T07:52:57.233Z,12.88
2022-08-02T07:55:35.168Z,12.73
2022-08-02T07:58:11.089Z,9.43
2022-08-02T08:00:40.812Z,7.07
2022-08-02T08:03:07.695Z,10.30
2022-08-02T08:05:34.885Z,10.50
2022-08-02T08:08:01.737Z,8.48
2022-08-02T08:10:28.631Z,11.05
2022-08-02T08:12:55.426Z,9.68
2022-08-02T08:15:22.433Z,7.32
2022-08-02T08:17:49.586Z,8.93
2022-08-02T08:20:16.464Z,6.45
2022-08-02T08:22:43.904Z,6.35
2022-08-02T08:25:16.646Z,9.52
2022-08-02T08:27:52.213Z,8.75
2022-08-02T08:30:22.734Z,12.52
2022-08-02T08:32:50.105Z,13.38
2022-08-02T08:35:17.580Z,13.32
2022-08-02T08:37:44.823Z,12.02
2022-08-02T08:40:12.688Z,11.52
2022-08-02T08:42:40.118Z,12.45
2022-08-02T08:45:09.577Z,11.32
2022-08-02T08:47:42.631Z,10.43
2022-08-02T08:50:25.404Z,11.98
2022-08-02T08:53:04.333Z,9.38
2022-08-02T08:55:33.632Z,8.75
2022-08-02T08:58:03.154Z,7.75
2022-08-02T09:00:32.697Z,7.40
2022-08-02T09:03:02.893Z,9.02
2022-08-02T09:05:29.790Z,11.70
2022-08-02T09:07:56.905Z,9.80
2022-08-02T09:10:56.126Z,7.63
2022-08-02T09:13:38.162Z,8.57
2022-08-02T09:16:14.666Z,8.43
2022-08-02T09:18:46.157Z,10.50
2022-08-02T09:21:16.260Z,6.22
2022-08-02T09:23:47.351Z,10.18
2022-08-02T09:26:18.605Z,5.28
2022-08-02T09:28:50.185Z,7.50
2022-08-02T09:31:24.469Z,4.82
2022-08-02T09:33:57.604Z,5.00
2022-08-02T09:36:26.736Z,5.80
2022-08-02T09:39:05.025Z,6.35
2022-08-02T09:41:36.418Z,5.45
2022-08-02T09:44:06.953Z,5.65
2022-08-02T09:46:44.282Z,4.22
2022-08-02T09:49:13.818Z,4.53
2022-08-02T09:51:54.255Z,6.13
2022-08-02T09:54:28.916Z,5.30
2022-08-02T09:59:28.001Z,6.88
2022-08-02T10:01:58.989Z,13.23
2022-08-02T10:07:19.566Z,6.78
2022-08-02T10:09:50.037Z,3.72
2022-08-02T10:12:18.439Z,3.42
2022-08-02T10:14:46.242Z,9.15
2022-08-02T10:17:15.296Z,8.18
2022-08-02T10:20:03.077Z,11.32
2022-08-02T10:22:30.278Z,6.65
2022-08-02T10:24:57.470Z,9.43
2022-08-02T10:27:25.969Z,5.75
2022-08-02T10:29:57.813Z,4.10
2022-08-02T10:32:31.481Z,5.68
2022-08-02T10:35:19.074Z,11.35
2022-08-02T10:38:01.090Z,6.95
2022-08-02T10:40:44.446Z,6.18
2022-08-02T10:43:12.336Z,8.02
2022-08-02T10:45:39.642Z,12.77
2022-08-02T10:48:14.594Z,4.75
2022-08-02T10:50:47.990Z,9.60
2022-08-02T10:53:30.376Z,9.13
2022-08-02T10:56:09.228Z,18.48
2022-08-02T10:58:36.379Z,3.70
2022-08-02T11:01:38.301Z,4.80
2022-08-02T11:04:10.585Z,5.90
2022-08-02T11:07:18.115Z,4.38
2022-08-02T11:09:50.289Z,14.30
2022-08-02T11:12:22.080Z,5.57
2022-08-02T11:15:07.390Z,7.80
2022-08-02T11:17:59.008Z,5.00
2022-08-02T11:20:29.045Z,5.32
2022-08-02T11:23:45.174Z,6.40
2022-08-02T11:26:45.541Z,3.88
2022-08-02T11:29:16.006Z,3.22
2022-08-02T11:31:45.630Z,4.65
2022-08-02T11:34:28.475Z,2.53
2022-08-02T11:37:01.081Z,4.75
2022-08-02T11:39:28.200Z,4.43
2022-08-02T11:41:58.954Z,2.33
2022-08-02T11:44:39.010Z,4.93
2022-08-02T11:47:07.036Z,3.13
2022-08-02T11:49:34.250Z,3.95
2022-08-02T11:52:06.751Z,2.38
2022-08-02T11:54:40.421Z,6.05
2022-08-02T11:57:22.277Z,7.23
2022-08-02T11:59:52.874Z,3.78
2022-08-02T12:02:28.941Z,3.78
2022-08-02T12:05:09.199Z,5.57
2022-08-02T12:07:45.778Z,2.97
2022-08-02T12:10:22.205Z,2.30
2022-08-02T12:12:58.795Z,2.47
2022-08-02T12:15:41.859Z,2.63
2022-08-02T12:18:37.148Z,5.03
2022-08-02T12:23:59.597Z,3.15
2022-08-02T12:26:29.895Z,3.17
2022-08-02T12:29:01.308Z,5.18
2022-08-02T12:31:57.366Z,3.13
2022-08-02T12:34:31.594Z,1.92
2022-08-02T12:37:10.755Z,3.00
2022-08-02T12:39:42.260Z,3.85
2022-08-02T12:42:14.157Z,9.55
2022-08-02T12:45:00.570Z,1.73
2022-08-02T12:47:35.497Z,1.48
2022-08-02T12:50:29.797Z,5.57
2022-08-02T12:53:09.829Z,4.05
2022-08-02T12:56:00.886Z,6.10
2022-08-02T12:58:31.534Z,5.18
2022-08-02T13:01:01.199Z,5.15
2022-08-02T13:04:11.577Z,2.05
2022-08-02T13:06:43.102Z,5.65
2022-08-02T13:09:15.495Z,3.30
2022-08-02T13:11:43.841Z,2.55
2022-08-02T13:14:12.952Z,3.70
2022-08-02T13:16:41.866Z,4.13
2022-08-02T13:19:09.564Z,5.35
2022-08-02T13:21:41.502Z,5.20
2022-08-02T13:24:39.772Z,7.68
2022-08-02T13:27:10.902Z,7.78
2022-08-02T13:30:05.476Z,1.73
2022-08-02T13:32:34.565Z,1.42
2022-08-02T13:35:01.609Z,2.42
2022-08-02T13:37:28.518Z,1.73
2022-08-02T13:40:20.771Z,2.85
2022-08-02T13:42:43.957Z,3.67
2022-08-02T13:45:12.026Z,1.90
2022-08-02T13:47:57.361Z,2.33
2022-08-02T13:50:30.613Z,2.97
2022-08-02T13:52:57.700Z,3.75
2022-08-02T13:55:25.010Z,2.72
2022-08-02T13:57:54.299Z,4.03
2022-08-02T14:00:34.977Z,4.93
2022-08-02T14:03:12.256Z,3.45
2022-08-02T14:05:48.595Z,4.95
2022-08-02T14:08:23.845Z,6.32
2022-08-02T14:10:56.634Z,4.78
2022-08-02T14:13:36.045Z,2.67
2022-08-02T14:16:21.779Z,3.15
2022-08-02T14:19:15.645Z,3.05
2022-08-02T14:21:48.618Z,3.50
2022-08-02T14:24:27.181Z,3.70
2022-08-02T14:26:56.555Z,1.40
2022-08-02T14:29:23.490Z,5.10
2022-08-02T14:31:50.384Z,1.42
2022-08-02T14:34:17.235Z,1.40
2022-08-02T14:36:44.195Z,6.82
2022-08-02T14:39:11.923Z,4.50
2022-08-02T14:41:59.821Z,3.50
2022-08-02T14:44:26.161Z,1.23
2022-08-02T14:46:53.163Z,1.80
2022-08-02T14:49:25.634Z,2.28
2022-08-02T14:51:57.529Z,4.32
2022-08-02T14:54:30.561Z,3.63
2022-08-02T14:57:00.691Z,4.07
2022-08-02T14:59:29.709Z,4.85
2022-08-02T15:01:57.381Z,3.50
2022-08-02T15:04:24.779Z,4.40
2022-08-02T15:06:51.976Z,1.60
2022-08-02T15:09:19.875Z,4.60
2022-08-02T15:11:49.131Z,2.75
2022-08-02T15:14:20.294Z,5.30
2022-08-02T15:16:57.052Z,3.17
2022-08-02T15:19:44.941Z,2.70
2022-08-02T15:22:16.625Z,4.40
2022-08-02T15:24:47.338Z,1.52
2022-08-02T15:27:15.292Z,3.65
2022-08-02T15:29:46.887Z,3.17
2022-08-02T15:32:19.951Z,1.27
2022-08-02T15:34:48.146Z,1.83
2022-08-02T15:37:15.209Z,2.90
2022-08-02T15:39:42.067Z,2.10
2022-08-02T15:42:09.076Z,1.30
2022-08-02T15:44:36.094Z,2.00
2022-08-02T15:47:06.711Z,5.43
2022-08-02T15:49:35.325Z,3.45
2022-08-02T15:52:05.166Z,3.95
2022-08-02T15:54:33.050Z,1.65
2022-08-02T15:57:00.411Z,4.45
2022-08-02T15:59:27.566Z,1.42
2022-08-02T16:01:54.468Z,3.03
2022-08-02T16:04:21.587Z,13.73
2022-08-02T16:06:48.485Z,3.13
2022-08-02T16:09:15.410Z,2.78
2022-08-02T16:11:42.333Z,1.63
2022-08-02T16:14:09.544Z,1.15
2022-08-02T16:16:37.704Z,2.42
2022-08-02T16:19:46.213Z,1.98
2022-08-02T16:21:54.803Z,7.68
2022-08-02T16:24:22.454Z,12.90
2022-08-02T16:26:50.009Z,4.57
2022-08-02T16:29:19.476Z,8.65
2022-08-02T16:31:48.159Z,4.10
2022-08-02T16:34:16.795Z,1.85
2022-08-02T16:36:44.702Z,5.97
2022-08-02T16:39:12.417Z,2.83
2022-08-02T16:41:51.124Z,2.83
2022-08-02T16:44:30.115Z,2.25
2022-08-02T16:47:01.953Z,1.60
2022-08-02T16:50:05.768Z,2.53
2022-08-02T16:52:23.303Z,2.80
2022-08-02T16:55:01.511Z,1.98
2022-08-02T16:57:43.148Z,3.00
2022-08-02T17:00:15.445Z,1.90
2022-08-02T17:02:47.009Z,2.05
2022-08-02T17:05:37.867Z,2.47
2022-08-02T17:08:24.281Z,2.53
2022-08-02T17:11:03.411Z,2.42
2022-08-02T17:13:34.431Z,2.17
2022-08-02T17:16:20.848Z,1.00
2022-08-02T17:18:54.360Z,1.77
2022-08-02T17:21:23.667Z,2.10
2022-08-02T17:24:06.283Z,1.42
2022-08-02T17:26:39.466Z,1.42
2022-08-02T17:32:04.769Z,2.72
2022-08-02T17:34:36.771Z,2.65
2022-08-02T17:37:05.407Z,3.05
2022-08-02T17:39:43.947Z,5.13
2022-08-02T17:42:26.573Z,1.50
2022-08-02T17:45:00.850Z,2.53
2022-08-02T17:47:30.872Z,2.72
2022-08-02T17:50:18.498Z,3.85
2022-08-02T17:52:52.539Z,2.47
2022-08-02T17:55:20.786Z,5.55
2022-08-02T17:57:58.238Z,1.48
2022-08-02T18:00:35.584Z,3.08
2022-08-02T18:03:06.276Z,1.85
2022-08-02T18:05:38.915Z,2.22
2022-08-02T18:08:07.615Z,1.65
2022-08-02T18:10:35.023Z,5.47
2022-08-02T18:13:03.247Z,1.35
2022-08-02T18:15:32.511Z,2.58
2022-08-02T18:18:00.955Z,1.60
2022-08-02T18:20:28.009Z,2.17
2022-08-02T18:22:58.474Z,2.75
2022-08-02T18:25:37.240Z,2.30
2022-08-02T18:28:11.654Z,2.47
2022-08-02T18:30:39.090Z,5.63
2022-08-02T18:33:54.414Z,2.75
2022-08-02T18:35:55.145Z,4.18
2022-08-02T18:38:23.266Z,2.90
2022-08-02T18:43:43.521Z,1.17
2022-08-02T18:46:15.921Z,7.65
2022-08-02T18:48:46.229Z,1.85
2022-08-02T18:51:14.723Z,2.30
2022-08-02T18:53:42.840Z,3.25
2022-08-02T18:56:19.925Z,5.60
2022-08-02T18:58:54.467Z,4.03
2022-08-02T19:01:32.019Z,8.07
2022-08-02T19:04:01.576Z,1.63
2022-08-02T19:06:29.766Z,3.65
2022-08-02T19:09:11.232Z,2.97
2022-08-02T19:11:50.397Z,2.47
2022-08-02T19:14:24.195Z,4.05
2022-08-02T19:16:59.283Z,2.55
2022-08-02T19:19:28.649Z,2.67
2022-08-02T19:22:16.258Z,4.65
2022-08-02T19:24:46.209Z,2.28
2022-08-02T19:30:04.249Z,4.32
2022-08-02T19:32:41.732Z,4.80
2022-08-02T19:35:29.867Z,2.67
2022-08-02T19:38:07.542Z,3.05
2022-08-02T19:40:35.023Z,2.92
2022-08-02T19:44:26.241Z,4.05
2022-08-02T19:45:51.429Z,2.67
2022-08-02T19:48:23.972Z,1.95
2022-08-02T19:50:55.925Z,2.17
2022-08-02T19:53:29.079Z,2.40
2022-08-02T19:56:11.755Z,2.97
2022-08-02T19:58:39.674Z,3.17
2022-08-02T20:01:14.974Z,3.85
2022-08-02T20:03:51.900Z,3.08
2022-08-02T20:06:29.737Z,3.85
2022-08-02T20:09:00.924Z,8.07
2022-08-02T20:11:34.949Z,2.70
2022-08-02T20:14:07.225Z,2.63
2022-08-02T20:16:35.792Z,3.03
2022-08-02T20:19:07.717Z,7.10
2022-08-02T20:21:37.171Z,4.75
2022-08-02T20:24:09.171Z,5.50
2022-08-02T20:26:47.095Z,3.35
2022-08-02T20:32:04.396Z,3.30
2022-08-02T20:34:31.476Z,1.90
2022-08-02T20:37:00.639Z,4.32
2022-08-02T20:39:48.060Z,5.25
2022-08-02T20:42:23.324Z,5.25
2022-08-02T20:44:54.893Z,3.22
2022-08-02T20:47:27.608Z,5.70
2022-08-02T20:50:14.723Z,4.47
2022-08-02T20:52:42.856Z,6.53
2022-08-02T20:55:10.022Z,3.90
2022-08-02T20:57:59.962Z,3.28
2022-08-02T21:00:32.141Z,3.88
2022-08-02T21:03:02.782Z,3.42
2022-08-02T21:05:53.923Z,4.53
2022-08-02T21:08:21.310Z,2.90
2022-08-02T21:10:51.895Z,3.78
2022-08-02T21:13:22.925Z,3.67
2022-08-02T21:15:51.903Z,2.60
2022-08-02T21:18:26.554Z,2.83
2022-08-02T21:21:04.332Z,3.03
2022-08-02T21:23:36.366Z,4.40
2022-08-02T21:26:06.462Z,5.28
2022-08-02T21:28:43.441Z,6.93
2022-08-02T21:31:16.168Z,4.18
2022-08-02T21:33:57.848Z,3.78
2022-08-02T21:36:33.169Z,2.28
2022-08-02T21:39:04.351Z,5.90
2022-08-02T21:41:38.899Z,7.35
2022-08-02T21:46:38.446Z,3.45
2022-08-02T21:49:05.931Z,4.82
2022-08-02T21:51:34.215Z,2.90
2022-08-02T21:54:17.390Z,5.15
2022-08-02T21:56:53.373Z,3.75
2022-08-02T22:02:10.314Z,8.07
2022-08-02T22:04:37.779Z,5.22
2022-08-02T22:07:05.440Z,2.55
2022-08-02T22:09:43.017Z,3.50
2022-08-02T22:12:18.407Z,2.63
2022-08-02T22:14:55.143Z,2.53
2022-08-02T22:17:50.485Z,6.10
2022-08-02T22:20:19.995Z,6.35
2022-08-02T22:22:51.351Z,2.85
2022-08-02T22:25:26.722Z,7.75
2022-08-02T22:28:37.217Z,4.32
2022-08-02T22:31:04.491Z,4.63
2022-08-02T22:34:01.181Z,3.30
2022-08-02T22:36:35.716Z,3.05
2022-08-02T22:39:19.141Z,5.50
2022-08-02T22:42:05.590Z,2.58
2022-08-02T22:44:35.679Z,3.30
2022-08-02T22:47:07.237Z,5.00
2022-08-02T22:49:51.879Z,6.68
2022-08-02T22:52:23.233Z,4.85
2022-08-02T22:54:51.088Z,4.47
2022-08-02T22:57:29.963Z,4.93
2022-08-02T22:58:45.114Z,3.60
2022-08-02T22:58:48.003Z,2.03
2022-08-02T22:58:50.426Z,1.92
2022-08-02T22:59:03.936Z,3.67
2022-08-02T22:59:08.351Z,2.80
2022-08-02T22:59:59.393Z,5.32
2022-08-02T23:02:26.816Z,5.97
2022-08-02T23:04:53.697Z,2.83
2022-08-02T23:07:20.611Z,2.60
2022-08-02T23:09:47.539Z,3.47
2022-08-02T23:12:18.987Z,5.47
2022-08-02T23:14:47.524Z,4.82
2022-08-02T23:17:33.336Z,4.47
2022-08-02T23:20:00.307Z,3.97
2022-08-02T23:22:29.950Z,3.40
2022-08-02T23:25:00.810Z,6.35
2022-08-02T23:27:28.614Z,2.95
2022-08-02T23:29:55.693Z,2.90
2022-08-02T23:32:25.461Z,8.73
2022-08-02T23:34:54.583Z,3.72
2022-08-02T23:37:22.626Z,3.28
2022-08-02T23:39:49.934Z,2.83
2022-08-02T23:42:17.058Z,5.63
2022-08-02T23:44:44.080Z,8.52
2022-08-02T23:47:11.103Z,4.55
2022-08-02T23:49:38.366Z,4.75
2022-08-02T23:52:05.515Z,6.32
2022-08-02T23:54:32.380Z,5.55
2022-08-02T23:56:59.316Z,5.80
2022-08-02T23:59:26.281Z,5.97
